Time;durP1;ratioP1;P1;durP2;ratioP2;P2;SDS_P1;SDS_P2;PMS_P1;PMS_P2;Temp;Humidity;BMP_temperature;BMP_pressure;BME280_temperature;BME280_humidity;BME280_pressure;Samples;Min_cycle;Max_cycle;Signal;HPM_P1;HPM_P2
2023/10/29 00:00:22;;;;;;;1.88;1.77;;;;;;;;;;5051055;28;20460;-71
2023/10/29 00:02:51;;;;;;;1.70;1.60;;;;;;;;;;5048423;28;20431;-71
2023/10/29 00:05:20;;;;;;;6.13;1.95;;;;;;;;;;5047488;28;20054;-70
2023/10/29 00:07:48;;;;;;;2.10;2.00;;;;;;;;;;5051177;28;20041;-70
2023/10/29 00:10:17;;;;;;;1.90;1.80;;;;;;;;;;5051810;28;20077;-70
2023/10/29 00:12:45;;;;;;;1.92;1.83;;;;;;;;;;5051355;28;20559;-70
2023/10/29 00:15:14;;;;;;;1.90;1.80;;;;;;;;;;5046470;28;20049;-71
2023/10/29 00:17:44;;;;;;;2.05;1.95;;;;;;;;;;5050050;28;20045;-70
2023/10/29 00:20:12;;;;;;;2.10;2.00;;;;;;;;;;5047589;28;20574;-71
2023/10/29 00:22:41;;;;;;;1.90;1.80;;;;;;;;;;5048507;28;20778;-72
2023/10/29 00:25:10;;;;;;;1.85;1.75;;;;;;;;;;5051129;28;20088;-72
2023/10/29 00:27:38;;;;;;;2.38;2.08;;;;;;;;;;5049833;28;20045;-73
2023/10/29 00:30:07;;;;;;;2.00;1.90;;;;;;;;;;5045006;28;20478;-72
2023/10/29 00:32:35;;;;;;;1.88;1.77;;;;;;;;;;5050320;28;20478;-72
2023/10/29 00:35:06;;;;;;;1.70;1.70;;;;;;;;;;5050634;28;20083;-72
2023/10/29 00:37:34;;;;;;;1.88;1.77;;;;;;;;;;5047879;28;20409;-72
2023/10/29 00:40:04;;;;;;;2.08;1.90;;;;;;;;;;5048704;28;20068;-73
2023/10/29 00:42:32;;;;;;;2.00;1.90;;;;;;;;;;5050252;28;20040;-72
2023/10/29 00:45:01;;;;;;;1.90;1.80;;;;;;;;;;5041299;28;20163;-72
2023/10/29 00:47:29;;;;;;;2.00;1.90;;;;;;;;;;5048913;28;20401;-72
2023/10/29 00:49:58;;;;;;;1.70;1.70;;;;;;;;;;5050558;28;20053;-72
2023/10/29 00:52:27;;;;;;;1.80;1.70;;;;;;;;;;5051034;28;20037;-71
2023/10/29 00:54:56;;;;;;;2.20;2.10;;;;;;;;;;5044798;28;20466;-72
2023/10/29 00:57:24;;;;;;;2.00;1.90;;;;;;;;;;5047505;28;20129;-73
2023/10/29 00:59:53;;;;;;;2.47;1.98;;;;;;;;;;5045559;28;20053;-72
2023/10/29 01:02:22;;;;;;;1.88;1.77;;;;;;;;;;5050076;28;20041;-72
2023/10/29 01:04:50;;;;;;;1.90;1.80;;;;;;;;;;5048708;28;20057;-72
2023/10/29 01:07:18;;;;;;;2.10;2.00;;;;;;;;;;5048665;28;20102;-72
2023/10/29 01:09:50;;;;;;;1.90;1.80;;;;;;;;;;5050209;28;20040;-73
2023/10/29 01:12:18;;;;;;;4.05;2.00;;;;;;;;;;5044755;28;20072;-72
2023/10/29 01:14:47;;;;;;;2.10;1.90;;;;;;;;;;5048580;28;20473;-72
2023/10/29 01:17:15;;;;;;;1.95;1.80;;;;;;;;;;5034455;28;20407;-72
2023/10/29 01:19:44;;;;;;;3.33;2.15;;;;;;;;;;5050365;28;20072;-72
2023/10/29 01:22:12;;;;;;;2.03;1.92;;;;;;;;;;5050668;28;20458;-72
2023/10/29 01:24:41;;;;;;;2.00;1.90;;;;;;;;;;5047861;28;20450;-72
2023/10/29 01:27:10;;;;;;;1.90;1.80;;;;;;;;;;5045305;28;20069;-73
2023/10/29 01:29:39;;;;;;;2.08;1.90;;;;;;;;;;5046677;28;20076;-72
2023/10/29 01:32:08;;;;;;;2.05;1.95;;;;;;;;;;5049440;28;20406;-72
2023/10/29 01:34:37;;;;;;;2.08;1.98;;;;;;;;;;5048237;28;20449;-72
2023/10/29 01:37:05;;;;;;;2.05;1.95;;;;;;;;;;5046668;28;20095;-72
2023/10/29 01:39:33;;;;;;;2.55;2.10;;;;;;;;;;5046059;28;20372;-71
2023/10/29 01:42:02;;;;;;;1.90;1.80;;;;;;;;;;5049858;28;20136;-72
2023/10/29 01:44:31;;;;;;;2.10;2.00;;;;;;;;;;5042388;28;20103;-71
2023/10/29 01:47:00;;;;;;;2.08;1.98;;;;;;;;;;5048711;28;20053;-72
2023/10/29 01:49:28;;;;;;;2.00;1.90;;;;;;;;;;5048570;28;20037;-71
2023/10/29 01:51:57;;;;;;;2.03;1.92;;;;;;;;;;5046165;28;20053;-71
2023/10/29 01:54:25;;;;;;;1.98;1.88;;;;;;;;;;5047106;28;20533;-71
2023/10/29 01:56:53;;;;;;;2.10;2.00;;;;;;;;;;5048954;28;20511;-71
2023/10/29 01:59:22;;;;;;;2.22;2.10;;;;;;;;;;5048211;28;20069;-71
2023/10/29 02:01:52;;;;;;;2.20;2.10;;;;;;;;;;5044557;28;20053;-71
2023/10/29 02:04:26;;;;;;;2.10;2.00;;;;;;;;;;5049441;28;20178;-71
2023/10/29 02:06:54;;;;;;;2.20;2.10;;;;;;;;;;5048620;28;20048;-71
2023/10/29 02:09:24;;;;;;;2.08;1.98;;;;;;;;;;5046880;28;20439;-72
2023/10/29 02:11:52;;;;;;;4.10;1.90;;;;;;;;;;5047557;28;20498;-71
2023/10/29 02:14:21;;;;;;;2.10;2.00;;;;;;;;;;5044526;28;20084;-71
2023/10/29 02:16:51;;;;;;;2.08;1.98;;;;;;;;;;5045248;28;20045;-71
2023/10/29 02:19:21;;;;;;;2.25;2.15;;;;;;;;;;5041046;28;20049;-71
2023/10/29 02:21:49;;;;;;;2.05;1.95;;;;;;;;;;5048969;28;20075;-71
2023/10/29 02:24:19;;;;;;;2.30;2.05;;;;;;;;;;5048782;28;20529;-71
2023/10/29 02:26:47;;;;;;;2.25;2.15;;;;;;;;;;5046848;28;20119;-71
2023/10/29 02:29:16;;;;;;;2.00;1.90;;;;;;;;;;5045299;28;20056;-71
2023/10/29 02:31:44;;;;;;;2.17;2.08;;;;;;;;;;5049405;28;20045;-71
2023/10/29 02:34:13;;;;;;;1.90;1.80;;;;;;;;;;5048067;28;20064;-71
2023/10/29 02:36:41;;;;;;;2.17;1.90;;;;;;;;;;5047093;28;20523;-71
2023/10/29 02:39:10;;;;;;;2.10;2.00;;;;;;;;;;5047884;28;20045;-71
2023/10/29 02:41:40;;;;;;;2.08;1.98;;;;;;;;;;5047130;28;20564;-73
2023/10/29 02:44:09;;;;;;;1.92;1.83;;;;;;;;;;5047456;28;20077;-71
2023/10/29 02:46:37;;;;;;;2.00;1.90;;;;;;;;;;5049238;28;20106;-71
2023/10/29 02:49:05;;;;;;;2.15;2.05;;;;;;;;;;5046930;28;20091;-71
2023/10/29 02:51:34;;;;;;;2.10;2.00;;;;;;;;;;5048870;28;20390;-71
2023/10/29 02:54:03;;;;;;;2.15;2.05;;;;;;;;;;5043040;28;20072;-71
2023/10/29 02:56:31;;;;;;;2.20;2.10;;;;;;;;;;5047334;28;20098;-73
2023/10/29 02:59:01;;;;;;;2.10;2.00;;;;;;;;;;5044357;28;20053;-71
2023/10/29 03:01:30;;;;;;;2.03;1.92;;;;;;;;;;5049110;28;20068;-71
2023/10/29 03:03:58;;;;;;;2.00;1.90;;;;;;;;;;5045022;28;20060;-71
2023/10/29 03:06:28;;;;;;;2.15;1.98;;;;;;;;;;5048202;28;20052;-71
2023/10/29 03:08:57;;;;;;;1.80;1.75;;;;;;;;;;5048655;28;20464;-71
2023/10/29 03:11:25;;;;;;;1.90;1.80;;;;;;;;;;5048638;28;20041;-71
2023/10/29 03:13:53;;;;;;;1.95;1.85;;;;;;;;;;5051055;28;20092;-71
2023/10/29 03:16:23;;;;;;;3.55;1.92;;;;;;;;;;5052259;28;20200;-71
2023/10/29 03:18:52;;;;;;;1.88;1.77;;;;;;;;;;5049526;28;20110;-71
2023/10/29 03:21:20;;;;;;;2.00;1.90;;;;;;;;;;5052786;28;20080;-71
2023/10/29 03:23:48;;;;;;;2.00;1.90;;;;;;;;;;5052339;28;20099;-72
2023/10/29 03:26:17;;;;;;;1.85;1.75;;;;;;;;;;5046921;28;20057;-71
2023/10/29 03:28:45;;;;;;;2.13;1.80;;;;;;;;;;5047054;28;20072;-71
2023/10/29 03:31:14;;;;;;;1.90;1.80;;;;;;;;;;5052451;28;20052;-71
2023/10/29 03:33:44;;;;;;;1.98;1.88;;;;;;;;;;5051886;28;20049;-71
2023/10/29 03:36:12;;;;;;;1.98;1.88;;;;;;;;;;5051792;28;20081;-71
2023/10/29 03:38:41;;;;;;;1.90;1.80;;;;;;;;;;5051169;28;20037;-71
2023/10/29 03:41:19;;;;;;;1.80;1.70;;;;;;;;;;5049835;28;20044;-71
2023/10/29 03:43:48;;;;;;;2.00;1.90;;;;;;;;;;5046005;28;20048;-71
2023/10/29 03:46:16;;;;;;;2.15;1.80;;;;;;;;;;5051621;28;20052;-71
2023/10/29 03:48:46;;;;;;;2.00;1.90;;;;;;;;;;5049818;28;20528;-72
2023/10/29 03:51:14;;;;;;;1.83;1.73;;;;;;;;;;5045775;28;20098;-71
2023/10/29 03:53:42;;;;;;;1.80;1.70;;;;;;;;;;5050936;28;20114;-71
2023/10/29 03:56:11;;;;;;;1.80;1.70;;;;;;;;;;5050491;28;20055;-71
2023/10/29 03:58:39;;;;;;;3.13;1.73;;;;;;;;;;5047182;28;20099;-71
2023/10/29 04:01:08;;;;;;;1.83;1.73;;;;;;;;;;5044672;28;20083;-71
2023/10/29 04:03:36;;;;;;;2.03;1.92;;;;;;;;;;5050916;28;20056;-72
2023/10/29 04:06:10;;;;;;;1.90;1.80;;;;;;;;;;5051125;28;20056;-71
2023/10/29 04:08:39;;;;;;;1.85;1.75;;;;;;;;;;5050209;28;20088;-71
2023/10/29 04:11:08;;;;;;;1.70;1.60;;;;;;;;;;5051310;28;20049;-71
2023/10/29 04:13:36;;;;;;;1.80;1.70;;;;;;;;;;5041566;28;20045;-72
2023/10/29 04:16:05;;;;;;;1.85;1.75;;;;;;;;;;5050591;28;20053;-71
2023/10/29 04:18:34;;;;;;;1.77;1.70;;;;;;;;;;5049600;28;20061;-71
2023/10/29 04:21:03;;;;;;;1.80;1.70;;;;;;;;;;5050846;28;20053;-71
2023/10/29 04:23:33;;;;;;;2.00;1.90;;;;;;;;;;5050768;28;20055;-71
2023/10/29 04:26:02;;;;;;;1.80;1.70;;;;;;;;;;5051302;28;20138;-72
2023/10/29 04:28:30;;;;;;;1.77;1.67;;;;;;;;;;5050032;28;20053;-71
2023/10/29 04:30:58;;;;;;;1.80;1.70;;;;;;;;;;5047005;28;20118;-71
2023/10/29 04:33:27;;;;;;;1.98;1.88;;;;;;;;;;5051151;28;20402;-70
2023/10/29 04:35:56;;;;;;;1.80;1.70;;;;;;;;;;5046790;28;20103;-71
2023/10/29 04:38:24;;;;;;;2.17;2.08;;;;;;;;;;5043741;28;20395;-71
2023/10/29 04:40:54;;;;;;;2.13;2.03;;;;;;;;;;5048246;28;20049;-71
2023/10/29 04:43:22;;;;;;;4.35;2.47;;;;;;;;;;5048244;28;20076;-71
2023/10/29 04:45:50;;;;;;;4.00;1.98;;;;;;;;;;5047093;28;20531;-71
2023/10/29 04:48:19;;;;;;;3.20;2.08;;;;;;;;;;5041015;28;20054;-71
2023/10/29 04:50:48;;;;;;;1.95;1.80;;;;;;;;;;5049730;28;20041;-71
2023/10/29 04:53:16;;;;;;;3.45;1.73;;;;;;;;;;5050549;28;20049;-71
2023/10/29 04:55:45;;;;;;;1.90;1.80;;;;;;;;;;5046207;28;20059;-71
2023/10/29 04:58:15;;;;;;;1.70;1.70;;;;;;;;;;5043529;28;20107;-71
2023/10/29 05:00:43;;;;;;;1.75;1.70;;;;;;;;;;5047463;28;20076;-71
2023/10/29 05:03:11;;;;;;;1.60;1.60;;;;;;;;;;5050152;28;20056;-71
2023/10/29 05:05:40;;;;;;;1.80;1.70;;;;;;;;;;5043846;28;20049;-71
2023/10/29 05:08:08;;;;;;;1.55;1.55;;;;;;;;;;5044583;28;20061;-71
2023/10/29 05:10:37;;;;;;;1.50;1.50;;;;;;;;;;5043653;28;20041;-72
2023/10/29 05:13:05;;;;;;;1.90;1.80;;;;;;;;;;5049712;28;20049;-71
2023/10/29 05:15:35;;;;;;;1.77;1.67;;;;;;;;;;5046144;28;20114;-71
2023/10/29 05:18:03;;;;;;;1.95;1.85;;;;;;;;;;5048686;28;20049;-71
2023/10/29 05:20:32;;;;;;;2.03;1.92;;;;;;;;;;5047609;28;20119;-71
2023/10/29 05:23:00;;;;;;;1.75;1.65;;;;;;;;;;5050768;28;20037;-71
2023/10/29 05:25:29;;;;;;;1.80;1.70;;;;;;;;;;5047599;28;20056;-71
2023/10/29 05:27:58;;;;;;;1.80;1.70;;;;;;;;;;5045563;28;20562;-71
2023/10/29 05:30:26;;;;;;;2.42;2.10;;;;;;;;;;5043745;28;20120;-72
2023/10/29 05:32:56;;;;;;;1.95;1.85;;;;;;;;;;5048228;28;20048;-72
2023/10/29 05:35:25;;;;;;;2.10;2.00;;;;;;;;;;5043829;28;20045;-72
2023/10/29 05:37:53;;;;;;;1.70;1.70;;;;;;;;;;5049065;28;20501;-71
2023/10/29 05:40:21;;;;;;;1.70;1.70;;;;;;;;;;5049973;28;20049;-71
2023/10/29 05:42:50;;;;;;;1.70;1.70;;;;;;;;;;5043674;28;20465;-71
2023/10/29 05:45:18;;;;;;;1.75;1.65;;;;;;;;;;5044461;28;20532;-71
2023/10/29 05:47:46;;;;;;;1.50;1.50;;;;;;;;;;5049266;28;20060;-71
2023/10/29 05:50:16;;;;;;;1.50;1.50;;;;;;;;;;5049754;28;20053;-71
2023/10/29 05:52:46;;;;;;;1.80;1.70;;;;;;;;;;5049663;28;20102;-71
2023/10/29 05:55:14;;;;;;;1.90;1.80;;;;;;;;;;5047567;28;20045;-71
2023/10/29 05:57:42;;;;;;;1.80;1.70;;;;;;;;;;5048213;28;20134;-71
2023/10/29 06:00:11;;;;;;;1.90;1.80;;;;;;;;;;5045266;28;20084;-71
2023/10/29 06:02:40;;;;;;;1.67;1.67;;;;;;;;;;5049540;28;20049;-71
2023/10/29 06:05:08;;;;;;;1.90;1.80;;;;;;;;;;5045174;28;20045;-71
2023/10/29 06:07:42;;;;;;;2.00;1.90;;;;;;;;;;5035331;28;20049;-71
2023/10/29 06:10:13;;;;;;;1.80;1.70;;;;;;;;;;5039624;28;20503;-72
2023/10/29 06:12:41;;;;;;;1.80;1.70;;;;;;;;;;5049616;28;20044;-71
2023/10/29 06:15:10;;;;;;;1.50;1.50;;;;;;;;;;5047855;28;20056;-71
2023/10/29 06:17:41;;;;;;;1.70;1.70;;;;;;;;;;5045033;28;20041;-71
2023/10/29 06:20:11;;;;;;;1.90;1.80;;;;;;;;;;5044026;28;20056;-71
2023/10/29 06:22:41;;;;;;;1.90;1.80;;;;;;;;;;5049042;28;20137;-72
2023/10/29 06:25:10;;;;;;;1.60;1.60;;;;;;;;;;5049349;28;20098;-71
2023/10/29 06:27:38;;;;;;;1.73;1.70;;;;;;;;;;5049450;28;20068;-71
2023/10/29 06:30:07;;;;;;;1.80;1.77;;;;;;;;;;5043852;28;20092;-71
2023/10/29 06:32:36;;;;;;;1.92;1.83;;;;;;;;;;5036322;28;20049;-71
2023/10/29 06:35:04;;;;;;;1.80;1.70;;;;;;;;;;5042610;28;20060;-71
2023/10/29 06:37:33;;;;;;;1.88;1.77;;;;;;;;;;5048082;28;20114;-71
2023/10/29 06:40:03;;;;;;;1.60;1.60;;;;;;;;;;5045699;28;20041;-71
2023/10/29 06:42:31;;;;;;;1.90;1.80;;;;;;;;;;5041809;28;20089;-72
2023/10/29 06:45:00;;;;;;;1.60;1.60;;;;;;;;;;5046127;28;20068;-71
2023/10/29 06:47:28;;;;;;;4.10;1.80;;;;;;;;;;5051849;28;20048;-71
2023/10/29 06:49:57;;;;;;;1.73;1.70;;;;;;;;;;5049428;28;20069;-68
2023/10/29 06:52:25;;;;;;;1.80;1.70;;;;;;;;;;5048772;28;20045;-71
2023/10/29 06:54:54;;;;;;;1.98;1.88;;;;;;;;;;5050717;28;20508;-71
2023/10/29 06:57:24;;;;;;;1.88;1.77;;;;;;;;;;5051922;28;20053;-70
2023/10/29 06:59:52;;;;;;;1.98;1.88;;;;;;;;;;5043078;28;20052;-70
2023/10/29 07:02:21;;;;;;;2.88;2.15;;;;;;;;;;5044541;28;20044;-71
2023/10/29 07:04:50;;;;;;;1.70;1.70;;;;;;;;;;5043317;28;20057;-70
2023/10/29 07:07:18;;;;;;;1.83;1.73;;;;;;;;;;5037970;28;20049;-70
2023/10/29 07:09:47;;;;;;;1.60;1.60;;;;;;;;;;5043251;28;20095;-71
2023/10/29 07:12:16;;;;;;;4.80;2.00;;;;;;;;;;5050935;28;20080;-70
2023/10/29 07:14:46;;;;;;;1.77;1.67;;;;;;;;;;5047751;28;20124;-70
2023/10/29 07:17:15;;;;;;;1.88;1.77;;;;;;;;;;5042458;28;20063;-71
2023/10/29 07:19:43;;;;;;;1.80;1.70;;;;;;;;;;5048158;28;20118;-70
2023/10/29 07:22:12;;;;;;;1.70;1.70;;;;;;;;;;5039149;28;20053;-70
2023/10/29 07:24:40;;;;;;;1.83;1.75;;;;;;;;;;5039971;28;20049;-72
2023/10/29 07:27:08;;;;;;;1.95;1.85;;;;;;;;;;5048554;28;20076;-73
2023/10/29 07:29:37;;;;;;;1.90;1.80;;;;;;;;;;5045256;28;20053;-70
2023/10/29 07:32:07;;;;;;;1.90;1.80;;;;;;;;;;5052029;28;20156;-70
2023/10/29 07:34:35;;;;;;;1.90;1.80;;;;;;;;;;5050884;28;20494;-70
2023/10/29 07:37:04;;;;;;;3.15;1.70;;;;;;;;;;5044325;28;20383;-70
2023/10/29 07:39:32;;;;;;;1.92;1.83;;;;;;;;;;5042809;28;20076;-71
2023/10/29 07:42:02;;;;;;;1.55;1.55;;;;;;;;;;5050504;28;20099;-70
2023/10/29 07:44:30;;;;;;;1.70;1.60;;;;;;;;;;5043888;28;20045;-69
2023/10/29 07:47:03;;;;;;;3.83;1.90;;;;;;;;;;5043413;28;20069;-70
2023/10/29 07:49:32;;;;;;;1.90;1.80;;;;;;;;;;5050012;28;20111;-70
2023/10/29 07:52:01;;;;;;;2.22;1.92;;;;;;;;;;5041948;28;20057;-70
2023/10/29 07:54:29;;;;;;;1.80;1.70;;;;;;;;;;5041099;28;20047;-70
2023/10/29 07:56:57;;;;;;;2.25;1.90;;;;;;;;;;5048341;28;20578;-70
2023/10/29 07:59:26;;;;;;;1.75;1.65;;;;;;;;;;5046846;28;20052;-70
2023/10/29 08:01:54;;;;;;;1.80;1.70;;;;;;;;;;5050697;28;20057;-70
2023/10/29 08:04:23;;;;;;;1.70;1.60;;;;;;;;;;5050742;28;20481;-71
2023/10/29 08:06:52;;;;;;;1.80;1.60;;;;;;;;;;5047346;28;20088;-70
2023/10/29 08:09:21;;;;;;;1.50;1.50;;;;;;;;;;5045708;28;20084;-71
2023/10/29 08:11:50;;;;;;;1.73;1.63;;;;;;;;;;5048757;28;20140;-70
2023/10/29 08:14:18;;;;;;;1.60;1.50;;;;;;;;;;5049336;28;20047;-70
2023/10/29 08:16:46;;;;;;;2.65;1.70;;;;;;;;;;5048440;28;20510;-70
2023/10/29 08:19:15;;;;;;;1.77;1.67;;;;;;;;;;5043075;28;20045;-71
2023/10/29 08:21:43;;;;;;;1.70;1.60;;;;;;;;;;5049189;28;20168;-69
2023/10/29 08:24:13;;;;;;;1.83;1.73;;;;;;;;;;5048941;28;20056;-70
2023/10/29 08:26:41;;;;;;;1.50;1.50;;;;;;;;;;5047419;28;20047;-71
2023/10/29 08:29:10;;;;;;;1.50;1.50;;;;;;;;;;5047232;28;20106;-70
2023/10/29 08:31:38;;;;;;;1.70;1.60;;;;;;;;;;5046002;28;20648;-70
2023/10/29 08:34:07;;;;;;;2.35;1.90;;;;;;;;;;5045703;28;20413;-71
2023/10/29 08:36:35;;;;;;;1.67;1.58;;;;;;;;;;5046607;28;20452;-71
2023/10/29 08:39:03;;;;;;;2.00;1.90;;;;;;;;;;5035522;28;20060;-71
2023/10/29 08:41:34;;;;;;;1.92;1.83;;;;;;;;;;5037743;28;20059;-74
2023/10/29 08:44:03;;;;;;;1.75;1.65;;;;;;;;;;5044482;28;20056;-70
2023/10/29 08:46:31;;;;;;;1.98;1.88;;;;;;;;;;5047702;28;20126;-70
2023/10/29 08:49:00;;;;;;;1.75;1.65;;;;;;;;;;5046738;28;20490;-71
2023/10/29 08:51:28;;;;;;;1.50;1.50;;;;;;;;;;5045577;28;20045;-70
2023/10/29 08:53:57;;;;;;;1.77;1.67;;;;;;;;;;5046244;28;20080;-70
2023/10/29 08:56:25;;;;;;;1.70;1.60;;;;;;;;;;5048757;28;20052;-70
2023/10/29 08:58:55;;;;;;;1.70;1.60;;;;;;;;;;5043497;28;20502;-69
2023/10/29 09:01:23;;;;;;;1.70;1.60;;;;;;;;;;5046136;28;20053;-69
2023/10/29 09:03:52;;;;;;;1.73;1.63;;;;;;;;;;5046500;28;20049;-70
2023/10/29 09:06:21;;;;;;;1.77;1.67;;;;;;;;;;5037809;28;20575;-70
2023/10/29 09:08:49;;;;;;;1.70;1.60;;;;;;;;;;5043119;28;20064;-70
2023/10/29 09:11:18;;;;;;;1.50;1.50;;;;;;;;;;5048160;28;20057;-70
2023/10/29 09:13:46;;;;;;;1.60;1.60;;;;;;;;;;5040891;28;20045;-70
2023/10/29 09:16:16;;;;;;;1.70;1.60;;;;;;;;;;5042943;28;20098;-70
2023/10/29 09:18:44;;;;;;;1.77;1.70;;;;;;;;;;5041336;28;20060;-69
2023/10/29 09:21:13;;;;;;;1.70;1.60;;;;;;;;;;5045531;28;20045;-69
2023/10/29 09:23:41;;;;;;;2.65;1.70;;;;;;;;;;5047630;28;20057;-70
2023/10/29 09:26:10;;;;;;;2.03;1.70;;;;;;;;;;5044950;28;20060;-71
2023/10/29 09:28:38;;;;;;;3.65;1.60;;;;;;;;;;5047001;28;20052;-69
2023/10/29 09:31:08;;;;;;;1.50;1.40;;;;;;;;;;5046387;28;20506;-72
2023/10/29 09:33:39;;;;;;;1.40;1.40;;;;;;;;;;5048404;28;20057;-71
2023/10/29 09:36:08;;;;;;;1.70;1.60;;;;;;;;;;5036611;28;20049;-69
2023/10/29 09:38:37;;;;;;;1.40;1.40;;;;;;;;;;5033772;28;20088;-73
2023/10/29 09:41:07;;;;;;;5.80;2.10;;;;;;;;;;5043759;28;20511;-70
2023/10/29 09:43:40;;;;;;;1.70;1.60;;;;;;;;;;5045042;28;20060;-70
2023/10/29 09:46:08;;;;;;;2.80;1.48;;;;;;;;;;5030700;28;20485;-70
2023/10/29 09:48:38;;;;;;;1.80;1.70;;;;;;;;;;5035006;28;20090;-72
2023/10/29 09:51:07;;;;;;;1.50;1.40;;;;;;;;;;5045656;28;20077;-72
2023/10/29 09:53:36;;;;;;;1.67;1.55;;;;;;;;;;5045230;28;20045;-70
2023/10/29 09:56:07;;;;;;;2.58;1.60;;;;;;;;;;5045850;28;20044;-70
2023/10/29 09:58:35;;;;;;;1.95;1.63;;;;;;;;;;5044868;28;20056;-72
2023/10/29 10:01:04;;;;;;;1.42;1.40;;;;;;;;;;5037219;28;20490;-71
2023/10/29 10:03:33;;;;;;;1.80;1.70;;;;;;;;;;5045716;28;20414;-70
2023/10/29 10:06:03;;;;;;;5.20;1.48;;;;;;;;;;5047289;28;20056;-72
2023/10/29 10:08:33;;;;;;;4.22;1.70;;;;;;;;;;5047042;28;20122;-69
2023/10/29 10:11:02;;;;;;;1.70;1.60;;;;;;;;;;5048390;28;20118;-70
2023/10/29 10:13:37;;;;;;;1.65;1.58;;;;;;;;;;5048041;28;20053;-68
2023/10/29 10:16:10;;;;;;;1.70;1.60;;;;;;;;;;5042807;28;20049;-71
2023/10/29 10:18:51;;;;;;;1.50;1.50;;;;;;;;;;5048738;28;20115;-70
2023/10/29 10:21:23;;;;;;;1.40;1.40;;;;;;;;;;5050471;28;20094;-70
2023/10/29 10:23:52;;;;;;;1.50;1.50;;;;;;;;;;5032603;28;20050;-71
2023/10/29 10:26:28;;;;;;;1.58;1.48;;;;;;;;;;5046726;28;20041;-72
2023/10/29 10:28:57;;;;;;;1.38;1.38;;;;;;;;;;5051962;28;20045;-70
2023/10/29 10:31:27;;;;;;;3.22;1.40;;;;;;;;;;5037956;28;20115;-71
2023/10/29 10:34:10;;;;;;;1.48;1.40;;;;;;;;;;5048913;28;20045;-72
2023/10/29 10:36:40;;;;;;;1.50;1.40;;;;;;;;;;5051330;28;20041;-70
2023/10/29 10:39:08;;;;;;;1.40;1.30;;;;;;;;;;5050649;28;20587;-71
2023/10/29 10:41:44;;;;;;;2.75;1.50;;;;;;;;;;5048536;28;20046;-71
2023/10/29 10:44:13;;;;;;;1.30;1.30;;;;;;;;;;5052099;28;20591;-70
2023/10/29 10:46:43;;;;;;;1.50;1.40;;;;;;;;;;5039062;28;20115;-71
2023/10/29 10:49:12;;;;;;;1.35;1.27;;;;;;;;;;5040483;28;20069;-71
2023/10/29 10:51:42;;;;;;;1.60;1.60;;;;;;;;;;5044186;28;20530;-72
2023/10/29 10:54:11;;;;;;;1.52;1.45;;;;;;;;;;5051657;28;20057;-80
2023/10/29 10:56:39;;;;;;;1.67;1.58;;;;;;;;;;5049884;28;20048;-70
2023/10/29 10:59:09;;;;;;;2.63;1.60;;;;;;;;;;5046590;28;20075;-72
2023/10/29 11:01:38;;;;;;;1.70;1.60;;;;;;;;;;5043335;28;20588;-71
2023/10/29 11:04:08;;;;;;;1.30;1.30;;;;;;;;;;5052212;28;20037;-73
2023/10/29 11:06:37;;;;;;;1.60;1.50;;;;;;;;;;5050227;28;20045;-73
2023/10/29 11:09:12;;;;;;;1.20;1.20;;;;;;;;;;5052184;28;20045;-70
2023/10/29 11:11:44;;;;;;;1.45;1.35;;;;;;;;;;5052522;28;20053;-72
2023/10/29 11:14:13;;;;;;;1.20;1.20;;;;;;;;;;5051617;28;20102;-72
2023/10/29 11:16:48;;;;;;;1.50;1.50;;;;;;;;;;5051203;28;20057;-71
2023/10/29 11:19:35;;;;;;;1.60;1.50;;;;;;;;;;5045054;28;20061;-71
2023/10/29 11:22:14;;;;;;;1.90;1.80;;;;;;;;;;5049571;28;20448;-72
2023/10/29 11:24:43;;;;;;;1.77;1.40;;;;;;;;;;5047149;28;20041;-71
2023/10/29 11:27:46;;;;;;;1.55;1.38;;;;;;;;;;5049375;28;20126;-70
2023/10/29 11:30:15;;;;;;;1.58;1.58;;;;;;;;;;4989219;28;20108;-71
2023/10/29 11:32:44;;;;;;;1.52;1.48;;;;;;;;;;4987970;28;20398;-72
2023/10/29 11:35:19;;;;;;;1.80;1.70;;;;;;;;;;5014448;28;20384;-71
2023/10/29 11:37:48;;;;;;;1.50;1.40;;;;;;;;;;5046319;28;20425;-71
2023/10/29 11:40:31;;;;;;;1.10;1.10;;;;;;;;;;5051090;28;20094;-75
2023/10/29 11:43:15;;;;;;;1.30;1.30;;;;;;;;;;5051813;28;20055;-70
2023/10/29 11:45:52;;;;;;;1.33;1.30;;;;;;;;;;5051831;28;20053;-72
2023/10/29 11:48:21;;;;;;;1.35;1.20;;;;;;;;;;5038741;28;20052;-73
2023/10/29 11:51:09;;;;;;;1.48;1.38;;;;;;;;;;5046345;28;20049;-71
2023/10/29 11:53:38;;;;;;;1.40;1.30;;;;;;;;;;5050890;28;20056;-75
2023/10/29 11:56:10;;;;;;;1.30;1.30;;;;;;;;;;5048629;28;20056;-70
2023/10/29 11:58:39;;;;;;;1.30;1.20;;;;;;;;;;5043535;28;20498;-70
2023/10/29 12:01:07;;;;;;;1.35;1.25;;;;;;;;;;5050568;28;20099;-70
2023/10/29 12:03:35;;;;;;;1.30;1.30;;;;;;;;;;5049746;28;20077;-78
2023/10/29 12:06:04;;;;;;;1.45;1.40;;;;;;;;;;5044837;28;20077;-72
2023/10/29 12:08:33;;;;;;;1.30;1.20;;;;;;;;;;5050895;28;20115;-73
2023/10/29 12:11:02;;;;;;;1.45;1.35;;;;;;;;;;5045879;28;20126;-71
2023/10/29 12:13:44;;;;;;;1.48;1.38;;;;;;;;;;5046160;28;20049;-71
2023/10/29 12:16:14;;;;;;;1.63;1.40;;;;;;;;;;5043026;28;20057;-71
2023/10/29 12:18:44;;;;;;;1.17;1.10;;;;;;;;;;5049393;28;20045;-71
2023/10/29 12:21:13;;;;;;;1.58;1.40;;;;;;;;;;5047925;28;20091;-70
2023/10/29 12:23:41;;;;;;;1.50;1.40;;;;;;;;;;5048795;28;20190;-70
2023/10/29 12:26:13;;;;;;;1.23;1.15;;;;;;;;;;5048200;28;20057;-75
2023/10/29 12:28:42;;;;;;;1.10;1.10;;;;;;;;;;5049237;28;20371;-79
2023/10/29 12:31:23;;;;;;;1.30;1.20;;;;;;;;;;5045672;28;20053;-72
2023/10/29 12:33:58;;;;;;;1.20;1.20;;;;;;;;;;5039500;28;20482;-70
2023/10/29 12:36:26;;;;;;;;;;;;;;;;;;5049353;28;20049;-70
2023/10/29 12:38:55;;;;;;;1.70;1.60;;;;;;;;;;5040199;28;19924;-70
2023/10/29 12:41:27;;;;;;;1.55;1.42;;;;;;;;;;5050365;28;20095;-75
2023/10/29 12:43:57;;;;;;;1.52;1.42;;;;;;;;;;5050972;28;20049;-78
2023/10/29 12:46:28;;;;;;;1.55;1.45;;;;;;;;;;5046405;28;20547;-73
2023/10/29 12:48:57;;;;;;;1.60;1.50;;;;;;;;;;5048852;28;20552;-69
2023/10/29 12:51:26;;;;;;;1.48;1.40;;;;;;;;;;5040001;28;20518;-70
2023/10/29 12:54:09;;;;;;;1.70;1.60;;;;;;;;;;5042915;28;20056;-70
2023/10/29 12:56:49;;;;;;;2.35;1.45;;;;;;;;;;5046655;28;20052;-73
2023/10/29 12:59:18;;;;;;;1.48;1.40;;;;;;;;;;5049034;28;20502;-70
2023/10/29 13:01:52;;;;;;;2.03;1.52;;;;;;;;;;5045532;28;20049;-75
2023/10/29 13:04:23;;;;;;;1.63;1.52;;;;;;;;;;5047158;28;20407;-72
2023/10/29 13:06:53;;;;;;;1.60;1.50;;;;;;;;;;5043859;28;20048;-71
2023/10/29 13:09:22;;;;;;;1.60;1.50;;;;;;;;;;5047430;28;20049;-70
2023/10/29 13:11:51;;;;;;;1.70;1.60;;;;;;;;;;5047408;28;20056;-70
2023/10/29 13:14:22;;;;;;;1.80;1.70;;;;;;;;;;5043727;28;20053;-72
2023/10/29 13:16:53;;;;;;;1.90;1.80;;;;;;;;;;5043673;28;20053;-70
2023/10/29 13:19:21;;;;;;;1.80;1.70;;;;;;;;;;5045062;28;21043;-71
2023/10/29 13:21:52;;;;;;;1.90;1.80;;;;;;;;;;5039143;28;20099;-70
2023/10/29 13:24:20;;;;;;;1.90;1.80;;;;;;;;;;5047296;28;20091;-70
2023/10/29 13:26:50;;;;;;;2.17;1.98;;;;;;;;;;5046430;28;20154;-74
2023/10/29 13:29:19;;;;;;;1.70;1.60;;;;;;;;;;5046717;28;20045;-71
2023/10/29 13:31:48;;;;;;;1.90;1.80;;;;;;;;;;5048303;28;20048;-70
2023/10/29 13:34:17;;;;;;;1.67;1.58;;;;;;;;;;5045889;28;20102;-72
2023/10/29 13:36:46;;;;;;;1.90;1.70;;;;;;;;;;5043758;28;20053;-70
2023/10/29 13:39:15;;;;;;;1.92;1.80;;;;;;;;;;5044282;28;20087;-70
2023/10/29 13:41:48;;;;;;;1.90;1.80;;;;;;;;;;5048161;28;20056;-75
2023/10/29 13:44:17;;;;;;;1.90;1.80;;;;;;;;;;5046283;28;20073;-70
2023/10/29 13:46:46;;;;;;;1.65;1.65;;;;;;;;;;5041516;28;20127;-70
2023/10/29 13:49:15;;;;;;;1.88;1.77;;;;;;;;;;5042406;28;20045;-71
2023/10/29 13:51:46;;;;;;;2.50;1.75;;;;;;;;;;5047165;28;20045;-69
2023/10/29 13:54:15;;;;;;;1.90;1.80;;;;;;;;;;5047245;28;20056;-69
2023/10/29 13:56:43;;;;;;;1.83;1.73;;;;;;;;;;5043304;28;20048;-70
2023/10/29 13:59:12;;;;;;;3.08;2.05;;;;;;;;;;5047696;28;20045;-70
2023/10/29 14:01:40;;;;;;;2.05;1.95;;;;;;;;;;5046363;28;20468;-72
2023/10/29 14:04:09;;;;;;;2.00;1.90;;;;;;;;;;5045931;28;20565;-73
2023/10/29 14:06:37;;;;;;;2.38;2.20;;;;;;;;;;5040033;28;20072;-70
2023/10/29 14:09:08;;;;;;;2.00;1.90;;;;;;;;;;5039134;28;20079;-70
2023/10/29 14:11:36;;;;;;;2.97;2.08;;;;;;;;;;5041414;28;20280;-71
2023/10/29 14:14:06;;;;;;;1.85;1.75;;;;;;;;;;5042204;28;20454;-70
2023/10/29 14:16:36;;;;;;;3.70;1.90;;;;;;;;;;5044600;28;20045;-70
2023/10/29 14:19:05;;;;;;;1.50;1.50;;;;;;;;;;5047598;28;20260;-70
2023/10/29 14:21:34;;;;;;;2.47;1.80;;;;;;;;;;5048032;28;20076;-69
2023/10/29 14:24:03;;;;;;;1.58;1.50;;;;;;;;;;5045796;28;20053;-77
2023/10/29 14:26:33;;;;;;;5.28;1.58;;;;;;;;;;5037437;28;20136;-71
2023/10/29 14:29:01;;;;;;;3.03;2.00;;;;;;;;;;5046981;28;20056;-70
2023/10/29 14:31:29;;;;;;;3.60;1.70;;;;;;;;;;5043238;28;20041;-70
2023/10/29 14:33:58;;;;;;;1.90;1.80;;;;;;;;;;5046902;28;20045;-70
2023/10/29 14:36:26;;;;;;;2.10;1.90;;;;;;;;;;5044753;28;20068;-67
2023/10/29 14:38:54;;;;;;;1.70;1.60;;;;;;;;;;5045103;28;20436;-71
2023/10/29 14:41:23;;;;;;;1.50;1.50;;;;;;;;;;5040961;28;20045;-72
2023/10/29 14:43:53;;;;;;;6.93;2.20;;;;;;;;;;5041106;28;20445;-72
2023/10/29 14:46:21;;;;;;;1.77;1.67;;;;;;;;;;5041225;28;20497;-70
2023/10/29 14:48:49;;;;;;;1.45;1.42;;;;;;;;;;5041984;28;20049;-69
2023/10/29 14:51:18;;;;;;;1.70;1.60;;;;;;;;;;5038596;28;20383;-69
2023/10/29 14:53:46;;;;;;;2.55;1.70;;;;;;;;;;5047727;28;20452;-70
2023/10/29 14:56:15;;;;;;;2.05;1.45;;;;;;;;;;5047722;28;20118;-71